createdAt,value
2022-09-11T00:00:59.400Z,12.10
2022-09-11T00:03:28.093Z,11.50
2022-09-11T00:05:55.200Z,9.37
2022-09-11T00:08:22.235Z,13.17
2022-09-11T00:10:49.294Z,9.33
2022-09-11T00:13:21.968Z,13.30
2022-09-11T00:15:51.524Z,13.20
2022-09-11T00:18:23.625Z,11.20
2022-09-11T00:20:55.131Z,12.57
2022-09-11T00:23:24.477Z,15.83
2022-09-11T00:25:51.261Z,12.50
2022-09-11T00:28:23.888Z,10.90
2022-09-11T00:31:02.133Z,13.03
2022-09-11T00:33:29.886Z,13.30
2022-09-11T00:36:01.211Z,13.90
2022-09-11T00:38:29.826Z,10.83
2022-09-11T00:40:59.153Z,10.27
2022-09-11T00:43:28.114Z,10.90
2022-09-11T00:45:59.925Z,13.33
2022-09-11T00:48:30.783Z,14.13
2022-09-11T00:51:01.124Z,16.87
2022-09-11T00:53:30.412Z,16.60
2022-09-11T00:56:01.654Z,21.73
2022-09-11T00:58:32.547Z,18.83
2022-09-11T01:00:59.381Z,16.43
2022-09-11T01:03:26.991Z,70.40
2022-09-11T01:05:54.946Z,120.87
2022-09-11T01:08:22.712Z,54.80
2022-09-11T01:11:01.532Z,89.80
2022-09-11T01:13:54.728Z,214.23
2022-09-11T01:16:49.262Z,58.23
2022-09-11T01:19:37.695Z,32.97
2022-09-11T01:22:35.529Z,113.67
2022-09-11T01:25:31.509Z,31.67
2022-09-11T01:28:01.061Z,24.07
2022-09-11T01:30:57.700Z,18.67
2022-09-11T01:33:35.513Z,16.33
2022-09-11T01:36:19.337Z,15.63
2022-09-11T01:38:57.994Z,14.63
2022-09-11T01:41:27.837Z,15.27
2022-09-11T01:44:03.834Z,17.03
2022-09-11T01:46:41.033Z,26.93
2022-09-11T01:49:22.204Z,20.90
2022-09-11T01:51:54.444Z,34.60
2022-09-11T01:54:25.326Z,13.17
2022-09-11T01:56:56.970Z,17.33
2022-09-11T01:59:30.040Z,13.87
2022-09-11T02:02:06.941Z,20.20
2022-09-11T02:04:41.257Z,39.73
2022-09-11T02:07:14.302Z,16.50
2022-09-11T02:09:54.009Z,22.73
2022-09-11T02:12:25.942Z,30.17
2022-09-11T02:14:53.513Z,11.97
2022-09-11T02:17:26.694Z,12.77
2022-09-11T02:19:56.181Z,18.07
2022-09-11T02:22:23.307Z,63.03
2022-09-11T02:24:50.068Z,26.53
2022-09-11T02:27:21.962Z,17.70
2022-09-11T02:29:49.014Z,13.23
2022-09-11T02:32:16.635Z,15.60
2022-09-11T02:34:46.568Z,24.37
2022-09-11T02:37:19.379Z,26.93
2022-09-11T02:40:19.688Z,28.30
2022-09-11T02:42:54.229Z,20.73
2022-09-11T02:45:48.094Z,24.83
2022-09-11T02:48:38.753Z,34.83
2022-09-11T02:51:20.388Z,20.10
2022-09-11T02:53:56.337Z,21.80
2022-09-11T02:56:48.749Z,27.20
2022-09-11T02:59:26.798Z,23.17
2022-09-11T03:01:56.500Z,14.13
2022-09-11T03:04:24.755Z,92.33
2022-09-11T03:06:52.834Z,15.73
2022-09-11T03:09:20.531Z,16.80
2022-09-11T03:11:47.277Z,17.43
2022-09-11T03:14:14.571Z,18.53
2022-09-11T03:16:41.638Z,14.27
2022-09-11T03:19:08.505Z,16.60
2022-09-11T03:21:35.346Z,14.83
2022-09-11T03:24:03.673Z,16.57
2022-09-11T03:26:33.019Z,13.73
2022-09-11T03:29:00.123Z,16.73
2022-09-11T03:31:26.980Z,18.23
2022-09-11T03:33:54.167Z,13.13
2022-09-11T03:36:21.005Z,18.70
2022-09-11T03:38:48.860Z,14.73
2022-09-11T03:41:16.340Z,26.67
2022-09-11T03:43:43.224Z,20.33
2022-09-11T03:46:10.507Z,21.87
2022-09-11T03:48:37.285Z,33.13
2022-09-11T03:51:05.724Z,56.97
2022-09-11T03:53:33.156Z,69.93
2022-09-11T03:56:00.442Z,37.40
2022-09-11T03:58:27.187Z,166.73
2022-09-11T04:00:53.988Z,140.20
2022-09-11T04:03:20.768Z,42.27
2022-09-11T04:06:01.594Z,32.83
2022-09-11T04:08:33.572Z,237.03
2022-09-11T04:11:02.958Z,129.63
2022-09-11T04:13:35.024Z,53.37
2022-09-11T04:16:13.962Z,63.03
2022-09-11T04:18:42.164Z,75.63
2022-09-11T04:21:11.686Z,122.80
2022-09-11T04:23:39.106Z,150.37
2022-09-11T04:26:17.828Z,51.87
2022-09-11T04:28:45.210Z,87.63
2022-09-11T04:31:13.148Z,144.13
2022-09-11T04:33:40.101Z,53.73
2022-09-11T04:36:08.660Z,113.80
2022-09-11T04:38:36.610Z,54.03
2022-09-11T04:41:04.378Z,93.33
2022-09-11T04:43:31.826Z,107.10
2022-09-11T04:46:06.288Z,114.40
2022-09-11T04:48:33.601Z,85.10
2022-09-11T04:51:06.464Z,125.03
2022-09-11T04:53:34.694Z,129.30
2022-09-11T04:56:16.165Z,169.47
2022-09-11T04:58:43.602Z,126.00
2022-09-11T05:01:15.903Z,147.57
2022-09-11T05:03:43.985Z,203.93
2022-09-11T05:06:12.719Z,114.37
2022-09-11T05:08:39.465Z,180.87
2022-09-11T05:11:06.356Z,85.20
2022-09-11T05:13:37.615Z,233.70
2022-09-11T05:16:05.647Z,161.60
2022-09-11T05:18:32.713Z,243.67
2022-09-11T05:21:04.310Z,117.07
2022-09-11T05:23:34.294Z,119.50
2022-09-11T05:26:03.102Z,62.20
2022-09-11T05:28:31.093Z,75.00
2022-09-11T05:30:58.452Z,132.47
2022-09-11T05:33:27.670Z,115.70
2022-09-11T05:35:55.925Z,191.30
2022-09-11T05:38:23.688Z,96.57
2022-09-11T05:40:52.115Z,37.53
2022-09-11T05:43:19.725Z,149.20
2022-09-11T05:45:55.069Z,116.90
2022-09-11T05:48:22.262Z,121.03
2022-09-11T05:50:57.167Z,107.63
2022-09-11T05:53:24.007Z,56.13
2022-09-11T05:55:51.827Z,132.50
2022-09-11T05:58:19.009Z,114.57
2022-09-11T06:00:46.734Z,169.33
2022-09-11T06:03:15.634Z,91.43
2022-09-11T06:05:43.164Z,122.27
2022-09-11T06:08:11.576Z,141.80
2022-09-11T06:10:47.907Z,136.03
2022-09-11T06:13:18.237Z,108.60
2022-09-11T06:15:49.237Z,33.07
2022-09-11T06:18:17.881Z,89.80
2022-09-11T06:20:58.295Z,91.13
2022-09-11T06:23:26.004Z,69.30
2022-09-11T06:25:54.227Z,96.87
2022-09-11T06:28:23.196Z,96.53
2022-09-11T06:30:51.302Z,67.53
2022-09-11T06:33:20.637Z,73.33
2022-09-11T06:36:01.479Z,71.83
2022-09-11T06:38:28.600Z,41.27
2022-09-11T06:40:55.701Z,91.67
2022-09-11T06:43:22.484Z,27.93
2022-09-11T06:45:49.646Z,47.47
2022-09-11T06:48:18.928Z,20.03
2022-09-11T06:50:46.201Z,39.10
2022-09-11T06:53:17.101Z,35.37
2022-09-11T06:55:43.804Z,53.53
2022-09-11T06:58:10.751Z,68.20
2022-09-11T07:00:37.592Z,33.87
2022-09-11T07:03:04.798Z,83.20
2022-09-11T07:05:32.020Z,54.63
2022-09-11T07:07:58.894Z,47.57
2022-09-11T07:10:26.055Z,42.73
2022-09-11T07:12:55.099Z,40.87
2022-09-11T07:15:22.252Z,71.80
2022-09-11T07:17:49.095Z,36.20
2022-09-11T07:20:17.621Z,19.53
2022-09-11T07:22:45.607Z,56.03
2022-09-11T07:25:12.728Z,51.90
2022-09-11T07:27:39.471Z,55.20
2022-09-11T07:30:07.104Z,27.77
2022-09-11T07:32:33.890Z,29.87
2022-09-11T07:35:02.495Z,32.07
2022-09-11T07:37:29.316Z,15.40
2022-09-11T07:39:56.132Z,15.57
2022-09-11T07:42:23.192Z,12.93
2022-09-11T07:44:50.740Z,27.53
2022-09-11T07:47:17.543Z,31.40
2022-09-11T07:49:47.117Z,26.07
2022-09-11T07:52:16.983Z,12.37
2022-09-11T07:54:43.914Z,13.30
2022-09-11T07:57:12.141Z,19.43
2022-09-11T07:59:39.337Z,32.23
2022-09-11T08:02:08.003Z,12.47
2022-09-11T08:04:34.905Z,11.87
2022-09-11T08:07:01.768Z,17.00
2022-09-11T08:09:28.845Z,17.77
2022-09-11T08:11:58.648Z,11.67
2022-09-11T08:14:27.447Z,13.50
2022-09-11T08:16:55.104Z,15.37
2022-09-11T08:19:23.864Z,12.00
2022-09-11T08:21:51.612Z,13.60
2022-09-11T08:24:20.639Z,13.10
2022-09-11T08:26:49.123Z,10.97
2022-09-11T08:29:16.354Z,12.37
2022-09-11T08:31:43.162Z,11.90
2022-09-11T08:34:10.730Z,12.37
2022-09-11T08:36:37.752Z,10.87
2022-09-11T08:39:05.251Z,11.20
2022-09-11T08:41:53.564Z,11.87
2022-09-11T08:44:23.518Z,10.60
2022-09-11T08:47:19.120Z,11.23
2022-09-11T08:50:01.488Z,12.13
2022-09-11T08:52:28.947Z,12.20
2022-09-11T08:54:59.570Z,13.27
2022-09-11T08:57:43.729Z,13.07
2022-09-11T09:00:16.744Z,11.70
2022-09-11T09:03:04.520Z,11.70
2022-09-11T09:05:40.657Z,11.73
2022-09-11T09:08:19.541Z,11.80
2022-09-11T09:11:05.208Z,10.50
2022-09-11T09:14:19.000Z,11.17
2022-09-11T09:17:15.056Z,10.63
2022-09-11T09:19:46.520Z,11.63
2022-09-11T09:22:39.168Z,11.47
2022-09-11T09:25:12.212Z,10.23
2022-09-11T09:27:48.298Z,9.97
2022-09-11T09:30:27.542Z,10.17
2022-09-11T09:33:17.143Z,12.20
2022-09-11T09:35:45.411Z,11.63
2022-09-11T09:38:21.823Z,8.93
2022-09-11T09:41:10.435Z,9.47
2022-09-11T09:43:57.302Z,10.43
2022-09-11T09:46:51.631Z,12.33
2022-09-11T09:49:30.676Z,11.13
2022-09-11T09:52:04.071Z,12.37
2022-09-11T09:54:36.389Z,11.40
2022-09-11T09:57:10.346Z,12.23
2022-09-11T09:59:51.393Z,11.63
2022-09-11T10:02:55.429Z,12.30
2022-09-11T10:05:27.064Z,11.10
2022-09-11T10:07:56.794Z,13.70
2022-09-11T10:10:28.455Z,12.27
2022-09-11T10:13:18.489Z,12.40
2022-09-11T10:15:49.239Z,11.63
2022-09-11T10:18:29.836Z,13.80
2022-09-11T10:21:18.226Z,14.93
2022-09-11T10:24:00.076Z,15.17
2022-09-11T10:26:32.673Z,15.03
2022-09-11T10:29:05.747Z,14.77
2022-09-11T10:31:33.280Z,17.70
2022-09-11T10:34:01.071Z,15.13
2022-09-11T10:36:29.592Z,15.03
2022-09-11T10:38:58.566Z,12.80
2022-09-11T10:41:27.827Z,20.77
2022-09-11T10:44:11.430Z,14.13
2022-09-11T10:46:40.821Z,13.03
2022-09-11T10:49:23.965Z,13.20
2022-09-11T10:52:08.018Z,12.13
2022-09-11T10:54:54.104Z,16.60
2022-09-11T10:57:43.772Z,59.63
2022-09-11T11:00:28.987Z,10.87
2022-09-11T11:03:05.133Z,9.60
2022-09-11T11:06:06.480Z,9.63
2022-09-11T11:08:59.761Z,9.43
2022-09-11T11:11:57.582Z,12.17
2022-09-11T11:14:29.977Z,11.63
2022-09-11T11:17:22.832Z,9.23
2022-09-11T11:20:11.291Z,11.27
2022-09-11T11:23:06.936Z,10.77
2022-09-11T11:25:46.221Z,8.70
2022-09-11T11:28:35.677Z,13.10
2022-09-11T11:31:11.447Z,9.13
2022-09-11T11:33:51.262Z,11.17
2022-09-11T11:36:40.881Z,8.80
2022-09-11T11:39:29.564Z,6.73
2022-09-11T11:42:16.302Z,10.10
2022-09-11T11:44:54.327Z,7.33
2022-09-11T11:47:30.157Z,10.23
2022-09-11T11:50:11.962Z,9.00
2022-09-11T11:52:51.173Z,7.20
2022-09-11T11:55:27.729Z,9.27
2022-09-11T11:58:04.583Z,6.10
2022-09-11T12:00:39.178Z,7.77
2022-09-11T12:03:30.737Z,4.90
2022-09-11T12:05:58.221Z,6.40
2022-09-11T12:08:25.426Z,6.73
2022-09-11T12:11:06.400Z,5.97
2022-09-11T12:13:36.572Z,6.43
2022-09-11T12:16:15.169Z,5.53
2022-09-11T12:19:01.173Z,8.23
2022-09-11T12:21:31.661Z,7.45
2022-09-11T12:23:58.377Z,6.93
2022-09-11T12:26:28.751Z,6.55
2022-09-11T12:29:14.314Z,5.93
2022-09-11T12:31:50.211Z,8.80
2022-09-11T12:34:20.745Z,5.97
2022-09-11T12:36:54.711Z,7.90
2022-09-11T12:39:28.254Z,9.25
2022-09-11T12:42:23.872Z,5.28
2022-09-11T12:44:50.587Z,8.40
2022-09-11T12:47:39.946Z,6.95
2022-09-11T12:50:12.732Z,5.68
2022-09-11T12:52:45.800Z,5.38
2022-09-11T12:55:34.712Z,7.57
2022-09-11T12:58:06.738Z,8.27
2022-09-11T13:00:39.179Z,7.82
2022-09-11T13:03:08.506Z,6.03
2022-09-11T13:05:38.106Z,5.43
2022-09-11T13:08:18.419Z,7.20
2022-09-11T13:10:46.884Z,6.32
2022-09-11T13:13:35.692Z,7.03
2022-09-11T13:16:19.185Z,6.47
2022-09-11T13:18:46.080Z,7.05
2022-09-11T13:21:17.467Z,5.05
2022-09-11T13:23:48.312Z,6.40
2022-09-11T13:26:35.413Z,7.03
2022-09-11T13:29:02.264Z,9.40
2022-09-11T13:31:33.896Z,6.68
2022-09-11T13:34:03.361Z,6.00
2022-09-11T13:36:33.257Z,7.18
2022-09-11T13:39:04.147Z,6.15
2022-09-11T13:41:37.503Z,7.90
2022-09-11T13:44:10.571Z,8.48
2022-09-11T13:46:50.332Z,8.17
2022-09-11T13:49:36.169Z,7.88
2022-09-11T13:52:06.667Z,7.50
2022-09-11T13:54:41.277Z,10.27
2022-09-11T13:57:17.791Z,6.93
2022-09-11T13:59:51.933Z,8.10
2022-09-11T14:02:27.249Z,8.10
2022-09-11T14:05:14.965Z,9.23
2022-09-11T14:07:47.337Z,6.32
2022-09-11T14:10:27.819Z,7.85
2022-09-11T14:13:09.274Z,8.88
2022-09-11T14:15:43.174Z,7.03
2022-09-11T14:18:18.357Z,7.53
2022-09-11T14:20:46.403Z,5.57
2022-09-11T14:23:25.617Z,13.57
2022-09-11T14:26:11.072Z,8.18
2022-09-11T14:28:54.731Z,6.75
2022-09-11T14:31:30.368Z,8.88
2022-09-11T14:34:10.042Z,6.15
2022-09-11T14:36:44.155Z,7.15
2022-09-11T14:39:40.014Z,6.43
2022-09-11T14:42:20.331Z,5.90
2022-09-11T14:44:47.352Z,6.10
2022-09-11T14:47:25.108Z,5.78
2022-09-11T14:49:53.581Z,8.65
2022-09-11T14:52:22.792Z,5.97
2022-09-11T14:54:50.164Z,6.25
2022-09-11T14:57:21.027Z,7.45
2022-09-11T14:59:48.048Z,5.20
2022-09-11T15:02:25.713Z,8.73
2022-09-11T15:04:54.590Z,8.68
2022-09-11T15:07:25.089Z,7.55
2022-09-11T15:09:53.329Z,4.60
2022-09-11T15:12:20.765Z,4.40
2022-09-11T15:14:57.601Z,5.70
2022-09-11T15:17:25.753Z,10.50
2022-09-11T15:19:53.170Z,4.70
2022-09-11T15:22:19.997Z,5.22
2022-09-11T15:24:47.184Z,4.93
2022-09-11T15:27:15.028Z,5.13
2022-09-11T15:29:42.606Z,6.70
2022-09-11T15:32:10.334Z,4.78
2022-09-11T15:34:38.724Z,4.82
2022-09-11T15:37:06.309Z,5.95
2022-09-11T15:39:34.030Z,6.47
2022-09-11T15:42:01.971Z,6.18
2022-09-11T15:44:29.446Z,5.40
2022-09-11T15:46:58.939Z,6.07
2022-09-11T15:49:28.467Z,5.20
2022-09-11T15:51:55.745Z,4.37
2022-09-11T15:54:23.465Z,5.13
2022-09-11T15:56:51.787Z,4.87
2022-09-11T15:59:18.948Z,5.15
2022-09-11T16:01:46.096Z,4.45
2022-09-11T16:04:17.443Z,6.47
2022-09-11T16:06:45.868Z,5.32
2022-09-11T16:09:19.147Z,6.07
2022-09-11T16:11:47.961Z,6.72
2022-09-11T16:14:24.630Z,6.25
2022-09-11T16:16:52.525Z,5.73
2022-09-11T16:19:22.576Z,5.10
2022-09-11T16:21:50.173Z,7.17
2022-09-11T16:24:17.447Z,4.33
2022-09-11T16:26:44.948Z,4.83
2022-09-11T16:29:14.805Z,4.63
2022-09-11T16:31:42.607Z,5.60
2022-09-11T16:34:10.920Z,4.40
2022-09-11T16:36:38.812Z,4.30
2022-09-11T16:39:07.005Z,4.67
2022-09-11T16:41:34.127Z,5.97
2022-09-11T16:44:01.378Z,5.80
2022-09-11T16:46:28.214Z,4.17
2022-09-11T16:49:01.486Z,5.53
2022-09-11T16:51:29.646Z,5.60
2022-09-11T16:53:56.973Z,5.10
2022-09-11T16:56:24.543Z,5.05
2022-09-11T16:58:51.761Z,4.40
2022-09-11T17:01:22.811Z,8.10
2022-09-11T17:03:52.061Z,4.72
2022-09-11T17:06:20.376Z,5.63
2022-09-11T17:08:50.471Z,4.40
2022-09-11T17:11:19.363Z,4.85
2022-09-11T17:13:46.948Z,4.40
2022-09-11T17:16:20.401Z,5.97
2022-09-11T17:18:53.938Z,5.03
2022-09-11T17:21:24.055Z,5.75
2022-09-11T17:23:52.695Z,6.13
2022-09-11T17:26:19.781Z,5.30
2022-09-11T17:28:48.251Z,6.20
2022-09-11T17:31:17.597Z,5.73
2022-09-11T17:33:45.527Z,5.03
2022-09-11T17:36:15.149Z,6.60
2022-09-11T17:38:42.174Z,6.13
2022-09-11T17:41:09.457Z,6.17
2022-09-11T17:43:38.072Z,5.77
2022-09-11T17:46:12.661Z,5.00
2022-09-11T17:48:40.132Z,3.40
2022-09-11T17:51:16.503Z,4.83
2022-09-11T17:53:46.182Z,4.13
2022-09-11T17:56:16.552Z,4.27
2022-09-11T17:58:44.825Z,3.13
2022-09-11T18:01:16.770Z,2.73
2022-09-11T18:03:43.789Z,5.93
2022-09-11T18:06:27.796Z,4.97
2022-09-11T18:08:57.826Z,7.70
2022-09-11T18:11:24.970Z,4.03
2022-09-11T18:13:51.818Z,3.70
2022-09-11T18:16:18.664Z,3.57
2022-09-11T18:18:45.535Z,5.20
2022-09-11T18:21:12.365Z,3.80
2022-09-11T18:23:41.986Z,3.57
2022-09-11T18:26:19.811Z,3.37
2022-09-11T18:28:49.262Z,4.17
2022-09-11T18:31:16.967Z,3.20
2022-09-11T18:33:43.991Z,3.90
2022-09-11T18:36:12.001Z,4.67
2022-09-11T18:38:38.848Z,3.67
2022-09-11T18:41:05.720Z,4.17
2022-09-11T18:43:32.695Z,4.20
2022-09-11T18:46:03.562Z,4.87
2022-09-11T18:48:30.341Z,3.97
2022-09-11T18:51:00.020Z,3.93
2022-09-11T18:53:27.117Z,5.07
2022-09-11T18:56:02.255Z,3.73
2022-09-11T18:58:31.184Z,3.70
2022-09-11T19:01:00.506Z,2.83
2022-09-11T19:03:30.438Z,4.03
2022-09-11T19:06:09.025Z,5.13
2022-09-11T19:08:40.665Z,3.87
2022-09-11T19:11:14.353Z,5.83
2022-09-11T19:13:43.527Z,5.03
2022-09-11T19:16:11.186Z,4.73
2022-09-11T19:18:41.432Z,4.30
2022-09-11T19:21:12.087Z,5.03
2022-09-11T19:23:41.803Z,4.13
2022-09-11T19:26:13.500Z,3.87
2022-09-11T19:28:42.453Z,5.17
2022-09-11T19:31:12.215Z,4.10
2022-09-11T19:33:40.340Z,7.53
2022-09-11T19:36:11.500Z,5.57
2022-09-11T19:38:42.899Z,4.47
2022-09-11T19:41:12.724Z,5.07
2022-09-11T19:43:40.978Z,5.23
2022-09-11T19:46:13.471Z,5.43
2022-09-11T19:48:41.110Z,6.57
2022-09-11T19:51:13.196Z,3.67
2022-09-11T19:53:41.162Z,3.80
2022-09-11T19:56:09.319Z,5.13
2022-09-11T19:58:36.568Z,5.60
2022-09-11T20:01:09.319Z,4.30
2022-09-11T20:03:40.761Z,4.87
2022-09-11T20:06:08.892Z,4.37
2022-09-11T20:08:37.408Z,5.03
2022-09-11T20:11:06.736Z,5.20
2022-09-11T20:13:36.869Z,3.97
2022-09-11T20:16:08.732Z,5.87
2022-09-11T20:18:36.163Z,4.70
2022-09-11T20:21:04.541Z,5.77
2022-09-11T20:23:31.990Z,4.93
2022-09-11T20:26:18.761Z,5.40
2022-09-11T20:28:47.023Z,4.47
2022-09-11T20:31:18.553Z,6.27
2022-09-11T20:33:46.326Z,5.23
2022-09-11T20:36:13.825Z,5.33
2022-09-11T20:38:40.594Z,5.87
2022-09-11T20:41:11.760Z,5.17
2022-09-11T20:43:39.252Z,5.07
2022-09-11T20:46:06.311Z,6.13
2022-09-11T20:48:33.156Z,5.80
2022-09-11T20:51:12.201Z,5.50
2022-09-11T20:53:41.791Z,5.60
2022-09-11T20:56:11.266Z,6.10
2022-09-11T20:58:38.980Z,5.57
2022-09-11T21:01:07.623Z,5.33
2022-09-11T21:03:34.760Z,7.80
2022-09-11T21:06:08.959Z,5.43
2022-09-11T21:08:35.851Z,6.37
2022-09-11T21:11:04.829Z,5.90
2022-09-11T21:13:35.205Z,5.80
2022-09-11T21:16:05.902Z,5.67
2022-09-11T21:18:32.934Z,4.70
2022-09-11T21:20:59.758Z,6.23
2022-09-11T21:23:26.607Z,6.30
2022-09-11T21:25:53.976Z,4.53
2022-09-11T21:28:21.193Z,6.50
2022-09-11T21:30:48.102Z,4.47
2022-09-11T21:33:15.128Z,5.70
2022-09-11T21:35:41.972Z,5.70
2022-09-11T21:38:08.852Z,4.70
2022-09-11T21:40:35.661Z,6.17
2022-09-11T21:43:02.440Z,5.47
2022-09-11T21:45:29.228Z,7.10
2022-09-11T21:47:56.076Z,6.00
2022-09-11T21:50:23.154Z,7.17
2022-09-11T21:52:50.035Z,5.60
2022-09-11T21:55:17.094Z,7.10
2022-09-11T21:57:45.473Z,6.77
2022-09-11T22:00:13.095Z,6.80
2022-09-11T22:02:40.289Z,6.83
2022-09-11T22:05:07.423Z,5.50
2022-09-11T22:07:34.396Z,7.03
2022-09-11T22:10:02.142Z,6.83
2022-09-11T22:12:28.928Z,5.10
2022-09-11T22:14:55.937Z,7.47
2022-09-11T22:17:23.286Z,7.87
2022-09-11T22:19:50.182Z,9.57
2022-09-11T22:22:17.562Z,7.23
2022-09-11T22:24:44.430Z,8.60
2022-09-11T22:27:11.461Z,6.40
2022-09-11T22:29:39.107Z,6.20
2022-09-11T22:32:06.774Z,8.40
2022-09-11T22:34:35.289Z,6.87
2022-09-11T22:37:02.584Z,6.67
2022-09-11T22:39:31.741Z,7.17
2022-09-11T22:41:59.705Z,8.67
2022-09-11T22:44:26.716Z,9.23
2022-09-11T22:46:53.769Z,9.30
2022-09-11T22:49:20.531Z,8.17
2022-09-11T22:51:47.366Z,9.10
2022-09-11T22:54:14.466Z,8.13
2022-09-11T22:56:41.253Z,9.50
2022-09-11T22:59:08.217Z,7.97
2022-09-11T23:01:35.818Z,10.20
2022-09-11T23:04:03.196Z,9.50
2022-09-11T23:06:48.787Z,8.60
2022-09-11T23:09:18.792Z,9.23
2022-09-11T23:11:46.787Z,8.63
2022-09-11T23:14:14.759Z,8.70
2022-09-11T23:16:42.458Z,10.50
2022-09-11T23:19:12.489Z,9.03
2022-09-11T23:21:39.397Z,13.37
2022-09-11T23:24:06.760Z,10.40
2022-09-11T23:26:33.987Z,11.00
2022-09-11T23:29:00.827Z,11.47
2022-09-11T23:31:33.440Z,10.17
2022-09-11T23:34:03.641Z,12.30
2022-09-11T23:36:31.716Z,11.20
2022-09-11T23:38:58.913Z,13.00
2022-09-11T23:41:26.393Z,11.03
2022-09-11T23:43:53.225Z,11.87
2022-09-11T23:46:20.301Z,12.67
2022-09-11T23:48:47.166Z,13.60
2022-09-11T23:51:15.637Z,13.37
2022-09-11T23:53:45.113Z,14.60
2022-09-11T23:56:14.443Z,14.47
2022-09-11T23:58:42.363Z,16.20
